createdAt,value
2023-05-20T00:00:35.253Z,23.28
2023-05-20T00:01:35.770Z,23.26
2023-05-20T00:02:34.941Z,23.23
2023-05-20T00:03:34.984Z,23.25
2023-05-20T00:04:34.984Z,23.26
2023-05-20T00:05:34.939Z,23.25
2023-05-20T00:06:34.983Z,23.22
2023-05-20T00:07:34.975Z,23.26
2023-05-20T00:08:35.109Z,23.26
2023-05-20T00:09:35.013Z,23.23
2023-05-20T00:10:35.036Z,23.25
2023-05-20T00:11:35.133Z,23.23
2023-05-20T00:12:35.080Z,23.22
2023-05-20T00:13:35.097Z,23.23
2023-05-20T00:14:35.109Z,23.25
2023-05-20T00:15:35.334Z,23.23
2023-05-20T00:16:35.188Z,23.22
2023-05-20T00:17:35.264Z,23.23
2023-05-20T00:18:35.189Z,23.23
2023-05-20T00:19:35.204Z,23.22
2023-05-20T00:20:35.301Z,23.25
2023-05-20T00:21:35.243Z,23.25
2023-05-20T00:22:35.266Z,23.22
2023-05-20T00:23:35.279Z,23.25
2023-05-20T00:24:35.289Z,23.25
2023-05-20T00:25:35.577Z,23.22
2023-05-20T00:26:35.339Z,23.25
2023-05-20T00:27:35.358Z,23.21
2023-05-20T00:28:35.387Z,23.23
2023-05-20T00:29:35.490Z,23.23
2023-05-20T00:30:35.433Z,23.22
2023-05-20T00:31:35.446Z,23.21
2023-05-20T00:32:35.497Z,23.22
2023-05-20T00:33:35.484Z,23.23
2023-05-20T00:34:36.257Z,23.23
2023-05-20T00:35:35.746Z,23.23
2023-05-20T00:36:35.767Z,23.21
2023-05-20T00:37:35.564Z,23.25
2023-05-20T00:38:35.576Z,23.25
2023-05-20T00:39:35.599Z,23.21
2023-05-20T00:40:35.666Z,23.21
2023-05-20T00:41:35.645Z,23.22
2023-05-20T00:42:35.682Z,23.22
2023-05-20T00:43:35.680Z,23.22
2023-05-20T00:44:35.732Z,23.23
2023-05-20T00:45:35.926Z,23.23
2023-05-20T00:46:35.771Z,23.22
2023-05-20T00:47:35.785Z,23.22
2023-05-20T00:48:35.831Z,23.21
2023-05-20T00:49:35.841Z,23.22
2023-05-20T00:50:35.805Z,23.22
2023-05-20T00:51:35.850Z,23.21
2023-05-20T00:52:35.838Z,23.19
2023-05-20T00:53:35.904Z,23.21
2023-05-20T00:54:35.883Z,23.21
2023-05-20T00:55:35.997Z,23.21
2023-05-20T00:56:35.942Z,23.22
2023-05-20T00:57:35.977Z,23.21
2023-05-20T00:58:35.993Z,23.22
2023-05-20T00:59:36.025Z,23.22
2023-05-20T01:00:36.048Z,23.22
2023-05-20T01:01:36.122Z,23.19
2023-05-20T01:02:36.168Z,23.22
2023-05-20T01:03:36.372Z,23.21
2023-05-20T01:04:36.147Z,23.22
2023-05-20T01:05:37.196Z,23.21
2023-05-20T01:06:36.279Z,23.21
2023-05-20T01:07:36.327Z,23.18
2023-05-20T01:08:36.330Z,23.19
2023-05-20T01:09:36.359Z,23.22
2023-05-20T01:10:36.393Z,23.19
2023-05-20T01:11:36.415Z,23.19
2023-05-20T01:12:36.453Z,23.19
2023-05-20T01:13:36.475Z,23.18
2023-05-20T01:14:36.490Z,23.21
2023-05-20T01:15:36.854Z,23.18
2023-05-20T01:16:36.598Z,23.19
2023-05-20T01:17:36.604Z,23.19
2023-05-20T01:18:36.594Z,23.18
2023-05-20T01:19:36.608Z,23.19
2023-05-20T01:20:36.636Z,23.22
2023-05-20T01:21:36.649Z,23.18
2023-05-20T01:22:36.739Z,23.21
2023-05-20T01:23:36.798Z,23.18
2023-05-20T01:24:36.729Z,23.19
2023-05-20T01:25:36.938Z,23.18
2023-05-20T01:26:36.770Z,23.19
2023-05-20T01:27:36.805Z,23.18
2023-05-20T01:28:36.830Z,23.18
2023-05-20T01:29:36.839Z,23.18
2023-05-20T01:30:36.934Z,23.19
2023-05-20T01:31:36.943Z,23.19
2023-05-20T01:32:36.945Z,23.19
2023-05-20T01:33:36.939Z,23.18
2023-05-20T01:34:37.772Z,23.18
2023-05-20T01:35:37.140Z,23.19
2023-05-20T01:36:37.016Z,23.18
2023-05-20T01:37:37.047Z,23.18
2023-05-20T01:38:37.071Z,23.18
2023-05-20T01:39:37.092Z,23.19
2023-05-20T01:40:37.168Z,23.18
2023-05-20T01:41:37.153Z,23.19
2023-05-20T01:42:37.192Z,23.19
2023-05-20T01:43:37.191Z,23.18
2023-05-20T01:44:37.777Z,23.17
2023-05-20T01:45:37.252Z,23.18
2023-05-20T01:46:37.374Z,23.17
2023-05-20T01:47:37.378Z,23.18
2023-05-20T01:48:37.324Z,23.18
2023-05-20T01:49:37.345Z,23.18
2023-05-20T01:50:37.363Z,23.15
2023-05-20T01:51:37.388Z,23.18
2023-05-20T01:52:37.412Z,23.18
2023-05-20T01:53:37.464Z,23.19
2023-05-20T01:54:37.451Z,23.18
2023-05-20T01:55:37.495Z,23.17
2023-05-20T01:56:37.499Z,23.15
2023-05-20T01:57:37.517Z,23.19
2023-05-20T01:58:37.544Z,23.15
2023-05-20T01:59:37.652Z,23.15
2023-05-20T02:00:37.604Z,23.15
2023-05-20T02:01:37.632Z,23.15
2023-05-20T02:02:37.892Z,23.17
2023-05-20T02:03:37.803Z,23.18
2023-05-20T02:04:37.687Z,23.17
2023-05-20T02:05:38.134Z,23.17
2023-05-20T02:06:37.719Z,23.17
2023-05-20T02:07:37.759Z,23.15
2023-05-20T02:08:37.790Z,23.17
2023-05-20T02:09:37.819Z,23.17
2023-05-20T02:10:37.862Z,23.17
2023-05-20T02:11:37.939Z,23.17
2023-05-20T02:12:37.888Z,23.18
2023-05-20T02:13:37.913Z,23.15
2023-05-20T02:14:37.941Z,23.17
2023-05-20T02:15:37.962Z,23.17
2023-05-20T02:16:38.052Z,23.17
2023-05-20T02:17:38.048Z,23.14
2023-05-20T02:18:38.055Z,23.14
2023-05-20T02:19:38.060Z,23.14
2023-05-20T02:20:38.107Z,23.15
2023-05-20T02:21:38.119Z,23.15
2023-05-20T02:22:38.146Z,23.18
2023-05-20T02:23:38.194Z,23.18
2023-05-20T02:24:38.214Z,23.14
2023-05-20T02:25:38.237Z,23.15
2023-05-20T02:26:38.314Z,23.15
2023-05-20T02:27:38.276Z,23.17
2023-05-20T02:28:38.370Z,23.15
2023-05-20T02:29:38.379Z,23.15
2023-05-20T02:30:38.359Z,23.15
2023-05-20T02:31:38.396Z,23.15
2023-05-20T02:32:38.497Z,23.12
2023-05-20T02:33:38.485Z,23.15
2023-05-20T02:34:38.464Z,23.14
2023-05-20T02:35:38.502Z,23.15
2023-05-20T02:36:38.522Z,23.14
2023-05-20T02:37:38.561Z,23.14
2023-05-20T02:38:38.586Z,23.15
2023-05-20T02:39:38.603Z,23.15
2023-05-20T02:40:38.634Z,23.14
2023-05-20T02:41:38.667Z,23.14
2023-05-20T02:42:38.676Z,23.15
2023-05-20T02:43:38.704Z,23.14
2023-05-20T02:44:38.738Z,23.14
2023-05-20T02:45:38.839Z,23.15
2023-05-20T02:46:38.799Z,23.12
2023-05-20T02:47:38.825Z,23.14
2023-05-20T02:48:38.837Z,23.12
2023-05-20T02:49:38.860Z,23.15
2023-05-20T02:50:38.885Z,23.15
2023-05-20T02:51:38.910Z,23.15
2023-05-20T02:52:38.938Z,23.14
2023-05-20T02:53:38.966Z,23.12
2023-05-20T02:54:38.995Z,23.15
2023-05-20T02:55:39.021Z,23.11
2023-05-20T02:56:39.057Z,23.11
2023-05-20T02:57:39.104Z,23.12
2023-05-20T02:58:39.123Z,23.15
2023-05-20T02:59:39.156Z,23.14
2023-05-20T03:00:39.199Z,23.12
2023-05-20T03:01:39.274Z,23.11
2023-05-20T03:02:39.295Z,23.10
2023-05-20T03:03:39.278Z,23.12
2023-05-20T03:04:39.425Z,23.12
2023-05-20T03:05:39.329Z,23.10
2023-05-20T03:06:39.362Z,23.12
2023-05-20T03:07:39.402Z,23.11
2023-05-20T03:08:39.422Z,23.12
2023-05-20T03:09:39.524Z,23.11
2023-05-20T03:10:39.483Z,23.11
2023-05-20T03:11:39.485Z,23.11
2023-05-20T03:12:39.512Z,23.14
2023-05-20T03:13:39.552Z,23.11
2023-05-20T03:14:39.582Z,23.10
2023-05-20T03:15:39.674Z,23.11
2023-05-20T03:16:39.630Z,23.10
2023-05-20T03:17:39.740Z,23.12
2023-05-20T03:18:39.701Z,23.11
2023-05-20T03:19:39.704Z,23.12
2023-05-20T03:20:39.740Z,23.12
2023-05-20T03:21:39.772Z,23.08
2023-05-20T03:22:39.805Z,23.10
2023-05-20T03:23:39.841Z,23.10
2023-05-20T03:24:39.877Z,23.08
2023-05-20T03:25:39.981Z,23.10
2023-05-20T03:26:39.928Z,23.10
2023-05-20T03:27:39.975Z,23.10
2023-05-20T03:28:39.994Z,23.08
2023-05-20T03:29:40.023Z,23.10
2023-05-20T03:30:40.046Z,23.10
2023-05-20T03:31:40.163Z,23.10
2023-05-20T03:32:40.111Z,23.07
2023-05-20T03:33:40.126Z,23.10
2023-05-20T03:34:40.144Z,23.11
2023-05-20T03:35:40.200Z,23.08
2023-05-20T03:36:40.233Z,23.10
2023-05-20T03:37:40.252Z,23.10
2023-05-20T03:38:40.282Z,23.11
2023-05-20T03:39:40.315Z,23.12
2023-05-20T03:40:40.340Z,23.10
2023-05-20T03:41:40.370Z,23.07
2023-05-20T03:42:41.324Z,23.08
2023-05-20T03:43:40.429Z,23.10
2023-05-20T03:44:40.460Z,23.11
2023-05-20T03:45:40.492Z,23.08
2023-05-20T03:46:40.586Z,23.08
2023-05-20T03:47:40.592Z,23.07
2023-05-20T03:48:40.577Z,23.10
2023-05-20T03:49:40.606Z,23.07
2023-05-20T03:50:40.657Z,23.07
2023-05-20T03:51:40.666Z,23.05
2023-05-20T03:52:40.702Z,23.08
2023-05-20T03:53:40.732Z,23.08
2023-05-20T03:54:40.752Z,23.08
2023-05-20T03:55:40.799Z,23.08
2023-05-20T03:56:40.820Z,23.10
2023-05-20T03:57:40.851Z,23.10
2023-05-20T03:58:40.889Z,23.08
2023-05-20T03:59:40.920Z,23.08
2023-05-20T04:00:40.946Z,23.08
2023-05-20T04:01:41.040Z,23.08
2023-05-20T04:02:41.143Z,23.08
2023-05-20T04:03:41.122Z,23.08
2023-05-20T04:04:41.133Z,23.05
2023-05-20T04:05:41.100Z,23.08
2023-05-20T04:06:41.139Z,23.08
2023-05-20T04:07:41.167Z,23.08
2023-05-20T04:08:41.297Z,23.05
2023-05-20T04:09:41.230Z,23.07
2023-05-20T04:10:41.263Z,23.07
2023-05-20T04:11:41.317Z,23.08
2023-05-20T04:12:41.416Z,23.08
2023-05-20T04:13:41.843Z,23.10
2023-05-20T04:14:41.401Z,23.07
2023-05-20T04:15:41.438Z,23.07
2023-05-20T04:16:44.460Z,23.05
2023-05-20T04:17:42.382Z,23.07
2023-05-20T04:18:41.464Z,23.07
2023-05-20T04:19:41.444Z,23.08
2023-05-20T04:20:41.444Z,23.08
2023-05-20T04:21:41.517Z,23.07
2023-05-20T04:22:41.434Z,23.08
2023-05-20T04:23:41.417Z,23.07
2023-05-20T04:24:41.403Z,23.07
2023-05-20T04:25:41.418Z,23.07
2023-05-20T04:26:41.393Z,23.08
2023-05-20T04:27:41.381Z,23.08
2023-05-20T04:28:41.441Z,23.08
2023-05-20T04:29:41.376Z,23.07
2023-05-20T04:30:41.350Z,23.07
2023-05-20T04:31:41.404Z,23.05
2023-05-20T04:32:41.405Z,23.07
2023-05-20T04:33:41.361Z,23.05
2023-05-20T04:34:41.332Z,23.08
2023-05-20T04:35:41.339Z,23.07
2023-05-20T04:36:41.330Z,23.10
2023-05-20T04:37:41.311Z,23.10
2023-05-20T04:38:41.304Z,23.08
2023-05-20T04:39:41.299Z,23.08
2023-05-20T04:40:41.283Z,23.10
2023-05-20T04:41:41.274Z,23.07
2023-05-20T04:42:41.274Z,23.07
2023-05-20T04:43:41.265Z,23.08
2023-05-20T04:44:42.301Z,23.07
2023-05-20T04:45:41.296Z,23.08
2023-05-20T04:46:41.287Z,23.05
2023-05-20T04:47:41.281Z,23.11
2023-05-20T04:48:41.359Z,23.10
2023-05-20T04:49:41.229Z,23.08
2023-05-20T04:50:41.222Z,23.08
2023-05-20T04:51:41.214Z,23.10
2023-05-20T04:52:41.224Z,23.10
2023-05-20T04:53:41.266Z,23.07
2023-05-20T04:54:41.293Z,23.07
2023-05-20T04:55:41.334Z,23.10
2023-05-20T04:56:41.364Z,23.11
2023-05-20T04:57:41.413Z,23.08
2023-05-20T04:58:41.437Z,23.11
2023-05-20T04:59:41.467Z,23.08
2023-05-20T05:00:41.497Z,23.11
2023-05-20T05:01:41.572Z,23.10
2023-05-20T05:02:41.620Z,23.12
2023-05-20T05:03:41.612Z,23.11
2023-05-20T05:04:41.722Z,23.12
2023-05-20T05:05:42.364Z,23.14
2023-05-20T05:06:41.678Z,23.12
2023-05-20T05:07:41.708Z,23.12
2023-05-20T05:08:41.742Z,23.15
2023-05-20T05:09:41.766Z,23.15
2023-05-20T05:10:41.800Z,23.15
2023-05-20T05:11:41.835Z,23.15
2023-05-20T05:12:41.868Z,23.17
2023-05-20T05:13:41.893Z,23.18
2023-05-20T05:14:41.906Z,23.15
2023-05-20T05:15:41.961Z,23.19
2023-05-20T05:16:41.966Z,23.19
2023-05-20T05:17:42.076Z,23.19
2023-05-20T05:18:42.095Z,23.19
2023-05-20T05:19:42.068Z,23.23
2023-05-20T05:20:42.090Z,23.25
2023-05-20T05:21:42.184Z,23.25
2023-05-20T05:22:42.139Z,23.26
2023-05-20T05:23:42.168Z,23.26
2023-05-20T05:24:42.189Z,23.26
2023-05-20T05:25:42.202Z,23.26
2023-05-20T05:26:42.225Z,23.29
2023-05-20T05:27:42.255Z,23.31
2023-05-20T05:28:42.276Z,23.32
2023-05-20T05:29:42.294Z,23.33
2023-05-20T05:30:42.306Z,23.36
2023-05-20T05:31:42.335Z,23.38
2023-05-20T05:32:42.436Z,23.39
2023-05-20T05:33:42.349Z,23.42
2023-05-20T05:34:42.374Z,23.42
2023-05-20T05:35:42.360Z,23.46
2023-05-20T05:36:42.360Z,23.48
2023-05-20T05:37:42.368Z,23.48
2023-05-20T05:38:42.379Z,23.50
2023-05-20T05:39:42.398Z,23.50
2023-05-20T05:40:42.392Z,23.50
2023-05-20T05:41:42.396Z,23.56
2023-05-20T05:42:42.422Z,23.56
2023-05-20T05:43:42.413Z,23.56
2023-05-20T05:44:42.412Z,23.59
2023-05-20T05:45:42.485Z,23.60
2023-05-20T05:46:42.466Z,23.62
2023-05-20T05:47:42.497Z,23.64
2023-05-20T05:48:42.451Z,23.69
2023-05-20T05:49:42.460Z,23.72
2023-05-20T05:50:42.486Z,23.74
2023-05-20T05:51:42.525Z,23.77
2023-05-20T05:52:42.565Z,23.83
2023-05-20T05:53:42.620Z,23.80
2023-05-20T05:54:42.661Z,23.84
2023-05-20T05:55:43.375Z,23.88
2023-05-20T05:56:42.797Z,23.88
2023-05-20T05:57:42.834Z,23.88
2023-05-20T05:58:42.902Z,23.88
2023-05-20T05:59:42.961Z,23.91
2023-05-20T06:00:43.067Z,23.90
2023-05-20T06:01:43.107Z,23.91
2023-05-20T06:02:43.212Z,23.90
2023-05-20T06:03:43.253Z,23.90
2023-05-20T06:04:43.237Z,23.87
2023-05-20T06:05:43.302Z,23.87
2023-05-20T06:06:43.367Z,23.87
2023-05-20T06:07:43.417Z,23.85
2023-05-20T06:08:43.483Z,23.88
2023-05-20T06:09:43.537Z,23.91
2023-05-20T06:10:43.599Z,23.91
2023-05-20T06:11:43.663Z,23.91
2023-05-20T06:12:43.718Z,23.91
2023-05-20T06:13:43.784Z,24.00
2023-05-20T06:14:43.843Z,24.04
2023-05-20T06:15:43.887Z,24.11
2023-05-20T06:16:44.006Z,24.15
2023-05-20T06:17:44.079Z,24.21
2023-05-20T06:18:44.068Z,24.21
2023-05-20T06:19:44.078Z,24.25
2023-05-20T06:20:44.088Z,24.29
2023-05-20T06:21:44.152Z,24.31
2023-05-20T06:22:44.153Z,24.31
2023-05-20T06:23:44.186Z,24.33
2023-05-20T06:24:44.224Z,24.36
2023-05-20T06:25:44.231Z,24.36
2023-05-20T06:26:44.268Z,24.38
2023-05-20T06:27:44.281Z,24.38
2023-05-20T06:28:44.314Z,24.36
2023-05-20T06:29:44.338Z,24.38
2023-05-20T06:30:44.407Z,24.42
2023-05-20T06:31:44.385Z,24.39
2023-05-20T06:32:44.432Z,24.42
2023-05-20T06:33:44.435Z,24.40
2023-05-20T06:34:44.447Z,24.42
2023-05-20T06:35:44.463Z,24.39
2023-05-20T06:36:44.490Z,24.38
2023-05-20T06:37:44.571Z,24.38
2023-05-20T06:38:44.535Z,24.38
2023-05-20T06:39:44.560Z,24.36
2023-05-20T06:40:44.586Z,24.39
2023-05-20T06:41:44.605Z,24.42
2023-05-20T06:42:44.629Z,24.43
2023-05-20T06:43:44.649Z,24.44
2023-05-20T06:44:44.679Z,24.46
2023-05-20T06:45:44.691Z,24.50
2023-05-20T06:46:44.789Z,24.50
2023-05-20T06:47:44.763Z,24.52
2023-05-20T06:48:44.757Z,24.52
2023-05-20T06:49:47.360Z,24.55
2023-05-20T06:50:45.415Z,24.60
2023-05-20T06:51:44.769Z,24.62
2023-05-20T06:52:44.759Z,24.67
2023-05-20T06:53:44.839Z,24.68
2023-05-20T06:54:44.744Z,24.74
2023-05-20T06:55:44.746Z,24.77
2023-05-20T06:56:44.745Z,24.73
2023-05-20T06:57:45.403Z,24.74
2023-05-20T06:58:44.726Z,24.77
2023-05-20T06:59:44.720Z,24.71
2023-05-20T07:00:44.709Z,24.71
2023-05-20T07:01:44.773Z,24.68
2023-05-20T07:02:44.766Z,24.68
2023-05-20T07:03:44.773Z,24.68
2023-05-20T07:04:44.673Z,24.68
2023-05-20T07:05:44.684Z,24.68
2023-05-20T07:06:44.678Z,24.67
2023-05-20T07:07:47.403Z,24.66
2023-05-20T07:08:44.946Z,24.66
2023-05-20T07:09:44.659Z,24.66
2023-05-20T07:10:44.644Z,24.66
2023-05-20T07:11:44.638Z,24.63
2023-05-20T07:12:44.627Z,24.63
2023-05-20T07:13:44.624Z,24.63
2023-05-20T07:14:44.613Z,24.66
2023-05-20T07:15:44.620Z,24.71
2023-05-20T07:16:44.585Z,24.68
2023-05-20T07:17:44.648Z,24.68
2023-05-20T07:18:44.623Z,24.66
2023-05-20T07:19:44.632Z,24.67
2023-05-20T07:20:44.560Z,24.64
2023-05-20T07:21:45.401Z,24.63
2023-05-20T07:22:45.409Z,24.62
2023-05-20T07:23:44.540Z,24.64
2023-05-20T07:24:44.542Z,24.63
2023-05-20T07:25:44.517Z,24.62
2023-05-20T07:26:44.513Z,24.63
2023-05-20T07:27:44.510Z,24.60
2023-05-20T07:28:44.502Z,24.62
2023-05-20T07:29:44.494Z,24.60
2023-05-20T07:30:44.511Z,24.62
2023-05-20T07:31:44.531Z,24.60
2023-05-20T07:32:44.502Z,24.59
2023-05-20T07:33:44.925Z,24.57
2023-05-20T07:34:44.466Z,24.60
2023-05-20T07:35:44.454Z,24.57
2023-05-20T07:36:44.466Z,24.57
2023-05-20T07:37:44.443Z,24.55
2023-05-20T07:38:56.528Z,24.57
2023-05-20T07:39:45.440Z,24.56
2023-05-20T07:40:44.418Z,24.55
2023-05-20T07:41:44.510Z,24.55
2023-05-20T07:42:44.422Z,24.55
2023-05-20T07:43:44.433Z,24.55
2023-05-20T07:44:44.399Z,24.52
2023-05-20T07:45:44.406Z,24.53
2023-05-20T07:46:44.439Z,24.55
2023-05-20T07:47:44.419Z,24.55
2023-05-20T07:48:44.368Z,24.50
2023-05-20T07:49:44.376Z,24.53
2023-05-20T07:50:44.359Z,24.53
2023-05-20T07:51:44.347Z,24.56
2023-05-20T07:52:55.952Z,24.59
2023-05-20T07:53:45.336Z,24.59
2023-05-20T07:54:44.320Z,24.67
2023-05-20T07:55:44.342Z,24.71
2023-05-20T07:56:44.338Z,24.76
2023-05-20T07:57:44.918Z,24.81
2023-05-20T07:58:44.295Z,24.85
2023-05-20T07:59:44.292Z,24.95
2023-05-20T08:00:44.300Z,24.97
2023-05-20T08:01:44.282Z,24.98
2023-05-20T08:02:44.462Z,25.01
2023-05-20T08:03:44.338Z,25.08
2023-05-20T08:04:44.362Z,25.01
2023-05-20T08:05:44.933Z,24.97
2023-05-20T08:06:44.259Z,24.99
2023-05-20T08:07:44.257Z,24.99
2023-05-20T08:08:44.261Z,24.98
2023-05-20T08:09:44.237Z,24.94
2023-05-20T08:10:44.224Z,24.91
2023-05-20T08:11:45.804Z,24.90
2023-05-20T08:12:44.207Z,24.88
2023-05-20T08:13:44.284Z,24.84
2023-05-20T08:14:44.924Z,24.92
2023-05-20T08:15:44.189Z,25.02
2023-05-20T08:16:44.204Z,25.09
2023-05-20T08:17:44.308Z,25.07
2023-05-20T08:18:44.259Z,25.12
2023-05-20T08:19:44.150Z,25.21
2023-05-20T08:20:44.149Z,25.25
2023-05-20T08:21:44.150Z,25.28
2023-05-20T08:22:44.142Z,25.33
2023-05-20T08:23:44.128Z,25.39
2023-05-20T08:24:44.125Z,25.43
2023-05-20T08:25:44.123Z,25.49
2023-05-20T08:26:44.441Z,25.54
2023-05-20T08:27:44.106Z,25.56
2023-05-20T08:28:44.103Z,25.59
2023-05-20T08:29:44.094Z,25.56
2023-05-20T08:30:44.111Z,25.53
2023-05-20T08:31:44.159Z,25.54
2023-05-20T08:32:44.104Z,25.54
2023-05-20T08:33:44.063Z,25.59
2023-05-20T08:34:44.050Z,25.60
2023-05-20T08:35:44.047Z,25.60
2023-05-20T08:36:44.048Z,25.57
2023-05-20T08:37:44.038Z,25.53
2023-05-20T08:38:44.049Z,25.54
2023-05-20T08:39:44.017Z,25.54
2023-05-20T08:40:44.003Z,25.49
2023-05-20T08:41:44.004Z,25.47
2023-05-20T08:42:44.000Z,25.44
2023-05-20T08:43:44.007Z,25.43
2023-05-20T08:44:43.994Z,25.44
2023-05-20T08:45:43.987Z,25.43
2023-05-20T08:46:44.005Z,25.42
2023-05-20T08:47:44.048Z,25.43
2023-05-20T08:48:43.991Z,25.42
2023-05-20T08:49:44.057Z,25.44
2023-05-20T08:50:44.099Z,25.50
2023-05-20T08:51:44.159Z,25.54
2023-05-20T08:52:44.196Z,25.56
2023-05-20T08:53:44.244Z,25.52
2023-05-20T08:54:44.946Z,25.49
2023-05-20T08:55:44.340Z,25.43
2023-05-20T08:56:44.385Z,25.43
2023-05-20T08:57:44.437Z,25.40
2023-05-20T08:58:44.493Z,25.39
2023-05-20T08:59:44.532Z,25.42
2023-05-20T09:00:44.607Z,25.39
2023-05-20T09:01:44.673Z,25.37
2023-05-20T09:02:44.705Z,25.40
2023-05-20T09:03:44.757Z,25.39
2023-05-20T09:04:44.815Z,25.42
2023-05-20T09:05:44.841Z,25.43
2023-05-20T09:06:44.913Z,25.42
2023-05-20T09:07:44.936Z,25.44
2023-05-20T09:08:44.990Z,25.47
2023-05-20T09:09:45.131Z,25.52
2023-05-20T09:10:45.065Z,25.56
2023-05-20T09:11:45.145Z,25.60
2023-05-20T09:12:45.154Z,25.64
2023-05-20T09:13:45.184Z,25.66
2023-05-20T09:14:45.212Z,25.66
2023-05-20T09:15:45.248Z,25.67
2023-05-20T09:16:45.344Z,25.66
2023-05-20T09:17:45.370Z,25.66
2023-05-20T09:18:45.360Z,25.66
2023-05-20T09:19:45.363Z,25.66
2023-05-20T09:20:45.471Z,25.61
2023-05-20T09:21:45.471Z,25.61
2023-05-20T09:22:45.443Z,25.57
2023-05-20T09:23:46.466Z,25.57
2023-05-20T09:24:45.535Z,25.52
2023-05-20T09:25:45.565Z,25.50
2023-05-20T09:26:45.601Z,25.47
2023-05-20T09:27:45.639Z,25.50
2023-05-20T09:28:45.678Z,25.53
2023-05-20T09:29:45.709Z,25.56
2023-05-20T09:30:46.320Z,25.61
2023-05-20T09:31:45.938Z,25.61
2023-05-20T09:32:45.824Z,25.60
2023-05-20T09:33:45.835Z,25.57
2023-05-20T09:34:45.871Z,25.54
2023-05-20T09:35:45.910Z,25.59
2023-05-20T09:36:45.984Z,25.63
2023-05-20T09:37:45.964Z,25.60
2023-05-20T09:38:45.996Z,25.59
2023-05-20T09:39:46.042Z,25.57
2023-05-20T09:40:46.063Z,25.56
2023-05-20T09:41:46.094Z,25.60
2023-05-20T09:42:46.120Z,25.61
2023-05-20T09:43:46.165Z,25.66
2023-05-20T09:44:47.026Z,25.63
2023-05-20T09:45:46.300Z,25.66
2023-05-20T09:46:46.238Z,25.63
2023-05-20T09:47:46.297Z,25.64
2023-05-20T09:48:46.296Z,25.66
2023-05-20T09:49:46.311Z,25.67
2023-05-20T09:50:46.331Z,25.71
2023-05-20T09:51:46.347Z,25.71
2023-05-20T09:52:46.405Z,25.74
2023-05-20T09:53:46.394Z,25.74
2023-05-20T09:54:46.413Z,25.73
2023-05-20T09:55:46.976Z,25.73
2023-05-20T09:56:46.471Z,25.70
2023-05-20T09:57:46.481Z,25.71
2023-05-20T09:58:46.517Z,25.71
2023-05-20T09:59:46.539Z,25.71
2023-05-20T10:00:46.554Z,25.73
2023-05-20T10:01:46.650Z,25.70
2023-05-20T10:02:46.702Z,25.70
2023-05-20T10:03:47.109Z,25.69
2023-05-20T10:04:46.654Z,25.67
2023-05-20T10:05:46.686Z,25.69
2023-05-20T10:06:46.713Z,25.67
2023-05-20T10:07:46.746Z,25.67
2023-05-20T10:08:46.778Z,25.66
2023-05-20T10:09:46.804Z,25.66
2023-05-20T10:10:46.847Z,25.67
2023-05-20T10:11:46.874Z,25.64
2023-05-20T10:12:46.914Z,25.63
2023-05-20T10:13:46.944Z,25.63
2023-05-20T10:14:46.984Z,25.63
2023-05-20T10:15:47.076Z,25.63
2023-05-20T10:16:47.057Z,25.63
2023-05-20T10:17:47.103Z,25.63
2023-05-20T10:18:47.168Z,25.61
2023-05-20T10:19:47.157Z,25.60
2023-05-20T10:20:47.188Z,25.59
2023-05-20T10:21:47.211Z,25.59
2023-05-20T10:22:47.244Z,25.56
2023-05-20T10:23:47.495Z,25.53
2023-05-20T10:24:47.309Z,25.53
2023-05-20T10:25:47.350Z,25.49
2023-05-20T10:26:47.462Z,25.49
2023-05-20T10:27:47.429Z,25.46
2023-05-20T10:28:47.468Z,25.46
2023-05-20T10:30:47.564Z,25.46
2023-05-20T10:31:47.589Z,25.44
2023-05-20T10:32:47.702Z,25.44
2023-05-20T10:33:47.735Z,25.42
2023-05-20T10:34:47.699Z,25.42
2023-05-20T10:35:47.831Z,25.40
2023-05-20T10:36:47.793Z,25.40
2023-05-20T10:37:47.879Z,25.40
2023-05-20T10:38:47.885Z,25.39
2023-05-20T10:39:47.915Z,25.39
2023-05-20T10:40:47.964Z,25.40
2023-05-20T10:41:48.016Z,25.37
2023-05-20T10:42:48.120Z,25.37
2023-05-20T10:43:48.108Z,25.37
2023-05-20T10:44:48.129Z,25.39
2023-05-20T10:45:48.180Z,25.37
2023-05-20T10:47:00.214Z,25.40
2023-05-20T10:47:49.319Z,25.40
2023-05-20T10:48:48.307Z,25.39
2023-05-20T10:49:48.197Z,25.40
2023-05-20T10:50:48.211Z,25.40
2023-05-20T10:51:48.217Z,25.39
2023-05-20T10:52:48.179Z,25.39
2023-05-20T10:53:48.174Z,25.37
2023-05-20T10:54:50.176Z,25.35
2023-05-20T10:55:48.204Z,25.32
2023-05-20T10:56:48.147Z,25.33
2023-05-20T10:57:48.163Z,25.32
2023-05-20T10:58:48.136Z,25.29
2023-05-20T10:59:48.142Z,25.29
2023-05-20T11:00:50.346Z,25.25
2023-05-20T11:01:48.124Z,25.25
2023-05-20T11:02:48.203Z,25.25
2023-05-20T11:03:48.264Z,25.23
2023-05-20T11:04:48.097Z,25.21
2023-05-20T11:05:48.097Z,25.21
2023-05-20T11:06:48.085Z,25.19
2023-05-20T11:07:48.073Z,25.17
2023-05-20T11:08:48.072Z,25.18
2023-05-20T11:09:48.074Z,25.18
2023-05-20T11:10:48.055Z,25.17
2023-05-20T11:11:48.044Z,25.17
2023-05-20T11:12:48.114Z,25.17
2023-05-20T11:13:48.061Z,25.17
2023-05-20T11:14:48.030Z,25.17
2023-05-20T11:15:48.021Z,25.15
2023-05-20T11:16:48.058Z,25.15
2023-05-20T11:17:48.021Z,25.18
2023-05-20T11:18:48.014Z,25.12
2023-05-20T11:19:47.986Z,25.12
2023-05-20T11:20:47.980Z,25.12
2023-05-20T11:21:47.973Z,25.12
2023-05-20T11:22:47.970Z,25.12
2023-05-20T11:23:47.983Z,25.12
2023-05-20T11:24:47.953Z,25.15
2023-05-20T11:25:47.944Z,25.11
2023-05-20T11:26:47.934Z,25.15
2023-05-20T11:27:47.935Z,25.12
2023-05-20T11:28:47.932Z,25.17
2023-05-20T11:29:47.912Z,25.14
2023-05-20T11:30:47.948Z,25.15
2023-05-20T11:31:47.970Z,25.15
2023-05-20T11:32:47.944Z,25.12
2023-05-20T11:33:47.881Z,25.14
2023-05-20T11:34:47.893Z,25.15
2023-05-20T11:35:47.879Z,25.15
2023-05-20T11:36:47.872Z,25.12
2023-05-20T11:37:47.862Z,25.11
2023-05-20T11:38:47.859Z,25.12
2023-05-20T11:39:47.897Z,25.08
2023-05-20T11:40:50.939Z,25.09
2023-05-20T11:41:47.945Z,25.05
2023-05-20T11:42:47.950Z,25.08
2023-05-20T11:43:47.944Z,25.05
2023-05-20T11:44:47.925Z,25.04
2023-05-20T11:45:48.035Z,25.02
2023-05-20T11:46:47.902Z,25.01
2023-05-20T11:47:47.939Z,24.99
2023-05-20T11:48:47.894Z,24.97
2023-05-20T11:49:47.889Z,24.98
2023-05-20T11:50:47.882Z,24.98
2023-05-20T11:51:47.877Z,24.97
2023-05-20T11:52:47.879Z,24.95
2023-05-20T11:53:47.864Z,24.94
2023-05-20T11:54:47.858Z,24.94
2023-05-20T11:55:47.854Z,24.95
2023-05-20T11:56:47.849Z,24.94
2023-05-20T11:57:47.845Z,24.92
2023-05-20T11:58:47.845Z,24.92
2023-05-20T11:59:47.828Z,24.94
2023-05-20T12:01:47.818Z,24.92
2023-05-20T12:02:47.919Z,24.90
2023-05-20T12:03:47.970Z,24.94
2023-05-20T12:04:47.822Z,24.92
2023-05-20T12:05:47.809Z,24.92
2023-05-20T12:06:47.850Z,24.94
2023-05-20T12:07:47.779Z,24.94
2023-05-20T12:08:47.853Z,24.92
2023-05-20T12:09:47.859Z,24.92
2023-05-20T12:10:47.827Z,24.92
2023-05-20T12:11:47.880Z,24.90
2023-05-20T12:12:47.937Z,24.91
2023-05-20T12:13:47.979Z,24.91
2023-05-20T12:14:48.030Z,24.90
2023-05-20T12:15:48.096Z,24.90
2023-05-20T12:16:48.134Z,24.91
2023-05-20T12:17:48.146Z,24.90
2023-05-20T12:18:48.235Z,24.90
2023-05-20T12:19:48.155Z,24.87
2023-05-20T12:20:48.169Z,24.90
2023-05-20T12:21:48.180Z,24.87
2023-05-20T12:22:48.191Z,24.87
2023-05-20T12:23:48.188Z,24.85
2023-05-20T12:24:48.210Z,24.87
2023-05-20T12:25:48.216Z,24.83
2023-05-20T12:26:48.263Z,24.85
2023-05-20T12:27:48.271Z,24.84
2023-05-20T12:28:48.278Z,24.85
2023-05-20T12:29:48.277Z,24.84
2023-05-20T12:30:48.261Z,24.81
2023-05-20T12:31:48.321Z,24.83
2023-05-20T12:32:48.341Z,24.81
2023-05-20T12:33:48.351Z,24.83
2023-05-20T12:34:48.334Z,24.81
2023-05-20T12:35:48.373Z,24.83
2023-05-20T12:36:48.324Z,24.83
2023-05-20T12:37:48.314Z,24.83
2023-05-20T12:38:48.347Z,24.81
2023-05-20T12:39:48.415Z,24.83
2023-05-20T12:40:48.333Z,24.80
2023-05-20T12:41:48.341Z,24.83
2023-05-20T12:42:48.400Z,24.84
2023-05-20T12:43:48.342Z,24.83
2023-05-20T12:44:48.344Z,24.83
2023-05-20T12:45:48.354Z,24.81
2023-05-20T12:46:48.385Z,24.83
2023-05-20T12:47:48.389Z,24.83
2023-05-20T12:48:48.373Z,24.83
2023-05-20T12:49:48.370Z,24.80
2023-05-20T12:50:48.364Z,24.80
2023-05-20T12:51:48.359Z,24.83
2023-05-20T12:52:48.363Z,24.81
2023-05-20T12:53:48.405Z,24.80
2023-05-20T12:54:48.370Z,24.81